Time;durP1;ratioP1;P1;durP2;ratioP2;P2;SDS_P1;SDS_P2;PMS_P1;PMS_P2;Temp;Humidity;BMP_temperature;BMP_pressure;BME280_temperature;BME280_humidity;BME280_pressure;Samples;Min_cycle;Max_cycle;Signal;HPM_P1;HPM_P2
2023/05/03 00:01:16;;;;;;;0.10;0.10;;;7.70;99.90;;;;;;5072756;28;20236;-81
2023/05/03 00:03:42;;;;;;;0.10;0.10;;;7.60;99.90;;;;;;5075193;28;20208;-80
2023/05/03 00:06:13;;;;;;;0.00;0.00;;;7.50;99.90;;;;;;5072962;28;20242;-81
2023/05/03 00:08:38;;;;;;;0.10;0.10;;;7.40;99.90;;;;;;5072875;28;20630;-81
2023/05/03 00:11:04;;;;;;;0.00;0.00;;;7.40;99.90;;;;;;5072441;28;20241;-81
2023/05/03 00:13:30;;;;;;;0.10;0.10;;;7.30;99.90;;;;;;5072913;28;20618;-81
2023/05/03 00:15:55;;;;;;;0.10;0.10;;;7.30;99.90;;;;;;5071979;28;20542;-81
2023/05/03 00:18:21;;;;;;;0.10;0.10;;;7.30;99.90;;;;;;5072333;28;20596;-80
2023/05/03 00:20:47;;;;;;;0.10;0.10;;;7.30;99.90;;;;;;5073763;28;20259;-80
2023/05/03 00:23:12;;;;;;;0.10;0.10;;;7.30;99.90;;;;;;5070835;28;20188;-82
2023/05/03 00:25:38;;;;;;;0.00;0.00;;;7.20;99.90;;;;;;5072095;28;20243;-80
2023/05/03 00:28:03;;;;;;;0.10;0.10;;;7.20;99.90;;;;;;5069031;28;20191;-82
2023/05/03 00:30:29;;;;;;;0.10;0.10;;;7.20;99.90;;;;;;5072598;28;20192;-81
2023/05/03 00:32:55;;;;;;;0.10;0.10;;;7.20;99.90;;;;;;5071795;28;20654;-81
2023/05/03 00:35:20;;;;;;;0.10;0.10;;;7.10;99.90;;;;;;5073785;28;20202;-81
2023/05/03 00:37:46;;;;;;;0.10;0.10;;;7.10;99.90;;;;;;5073013;28;20657;-81
2023/05/03 00:40:12;;;;;;;0.00;0.00;;;7.00;99.90;;;;;;5070287;28;20214;-79
2023/05/03 00:42:37;;;;;;;0.10;0.10;;;6.90;99.90;;;;;;5072714;28;20196;-81
2023/05/03 00:45:04;;;;;;;0.10;0.10;;;6.90;99.90;;;;;;5072530;28;20233;-81
2023/05/03 00:47:31;;;;;;;0.10;0.10;;;6.80;99.90;;;;;;5072312;28;20664;-80
2023/05/03 00:49:56;;;;;;;0.10;0.10;;;6.80;99.90;;;;;;5072829;28;20211;-81
2023/05/03 00:52:22;;;;;;;0.10;0.10;;;6.70;99.90;;;;;;5072551;28;20183;-81
2023/05/03 00:54:48;;;;;;;0.10;0.10;;;6.70;99.90;;;;;;5073024;28;20626;-81
2023/05/03 00:57:13;;;;;;;0.10;0.10;;;6.70;99.90;;;;;;5072945;28;20191;-81
2023/05/03 00:59:39;;;;;;;0.10;0.10;;;6.70;99.90;;;;;;5077946;28;20544;-81
2023/05/03 01:02:05;;;;;;;0.10;0.10;;;6.70;99.90;;;;;;5077105;28;20202;-81
2023/05/03 01:04:30;;;;;;;0.10;0.10;;;6.70;99.90;;;;;;5074809;28;20199;-81
2023/05/03 01:07:06;;;;;;;0.10;0.10;;;6.60;99.90;;;;;;5072346;28;20209;-81
2023/05/03 01:10:00;;;;;;;0.10;0.10;;;6.60;99.90;;;;;;5074572;28;20211;-80
2023/05/03 01:12:33;;;;;;;0.10;0.10;;;6.60;99.90;;;;;;5076426;28;20231;-81
2023/05/03 01:15:16;;;;;;;0.10;0.10;;;6.50;99.90;;;;;;5091950;28;20187;-81
2023/05/03 01:17:50;;;;;;;0.10;0.10;;;6.50;99.90;;;;;;5073784;28;20260;-81
2023/05/03 01:20:23;;;;;;;0.10;0.10;;;6.40;99.90;;;;;;5073589;28;20211;-81
2023/05/03 01:23:21;;;;;;;0.10;0.10;;;6.40;99.90;;;;;;5075518;28;20194;-81
2023/05/03 01:25:46;;;;;;;0.10;0.10;;;6.40;99.90;;;;;;5074689;28;20988;-81
2023/05/03 01:28:12;;;;;;;0.10;0.10;;;6.40;99.90;;;;;;5074730;28;20215;-81
2023/05/03 01:30:40;;;;;;;0.00;0.00;;;6.40;99.90;;;;;;5076132;28;20187;-81
2023/05/03 01:33:35;;;;;;;0.10;0.10;;;6.30;99.90;;;;;;5074795;28;20220;-81
2023/05/03 01:36:12;;;;;;;0.10;0.10;;;6.20;99.90;;;;;;5073739;28;20184;-80
2023/05/03 01:38:38;;;;;;;0.10;0.10;;;6.20;99.90;;;;;;5073798;28;20218;-81
2023/05/03 01:41:10;;;;;;;0.10;0.10;;;6.10;99.90;;;;;;5076385;28;20272;-81
2023/05/03 01:43:37;;;;;;;0.10;0.10;;;6.10;99.90;;;;;;5075599;28;20291;-81
2023/05/03 01:46:03;;;;;;;0.00;0.00;;;6.10;99.90;;;;;;5074939;28;20262;-81
2023/05/03 01:48:28;;;;;;;0.10;0.10;;;6.10;99.90;;;;;;5073901;28;20563;-81
2023/05/03 01:50:54;;;;;;;0.10;0.10;;;6.10;99.90;;;;;;5071715;28;20601;-81
2023/05/03 01:53:20;;;;;;;0.10;0.10;;;6.10;99.90;;;;;;5073316;28;20194;-80
2023/05/03 01:55:45;;;;;;;0.10;0.10;;;6.10;99.90;;;;;;5080368;28;20187;-81
2023/05/03 01:58:11;;;;;;;0.10;0.10;;;6.10;99.90;;;;;;5079659;28;20614;-81
2023/05/03 02:00:37;;;;;;;0.10;0.10;;;6.00;99.90;;;;;;5079662;28;20277;-81
2023/05/03 02:03:03;;;;;;;0.10;0.10;;;6.00;99.90;;;;;;5076059;28;20305;-81
2023/05/03 02:05:28;;;;;;;0.10;0.10;;;6.10;99.90;;;;;;5077194;28;20202;-81
2023/05/03 02:07:54;;;;;;;0.10;0.10;;;6.00;99.90;;;;;;5074333;28;20192;-81
2023/05/03 02:10:19;;;;;;;0.10;0.10;;;6.00;99.90;;;;;;5075712;28;20548;-81
2023/05/03 02:12:45;;;;;;;0.10;0.10;;;5.90;99.90;;;;;;5080716;28;20190;-81
2023/05/03 02:15:11;;;;;;;0.10;0.10;;;5.80;99.90;;;;;;5076869;28;20213;-81
2023/05/03 02:17:37;;;;;;;0.10;0.10;;;5.80;99.90;;;;;;5076065;28;20202;-81
2023/05/03 02:20:04;;;;;;;0.10;0.10;;;5.80;99.90;;;;;;5076045;28;20204;-79
2023/05/03 02:22:31;;;;;;;0.10;0.10;;;5.70;99.90;;;;;;5077026;28;20272;-81
2023/05/03 02:24:57;;;;;;;0.10;0.10;;;5.70;99.90;;;;;;5076206;28;20202;-81
2023/05/03 02:27:23;;;;;;;0.10;0.10;;;5.80;99.90;;;;;;5073140;28;20186;-80
2023/05/03 02:29:49;;;;;;;0.10;0.10;;;5.70;99.90;;;;;;5073936;28;20201;-79
2023/05/03 02:32:15;;;;;;;0.10;0.10;;;5.60;99.90;;;;;;5076365;28;20195;-80
2023/05/03 02:34:43;;;;;;;0.10;0.10;;;5.60;99.90;;;;;;5072339;28;20191;-81
2023/05/03 02:37:08;;;;;;;0.07;0.07;;;5.50;99.90;;;;;;5075047;28;20194;-81
2023/05/03 02:39:34;;;;;;;0.10;0.10;;;5.40;99.90;;;;;;5076637;28;20274;-81
2023/05/03 02:41:59;;;;;;;0.10;0.10;;;5.40;99.90;;;;;;5073985;28;20671;-81
2023/05/03 02:44:25;;;;;;;0.10;0.10;;;5.50;99.90;;;;;;5075065;28;20742;-81
2023/05/03 02:46:50;;;;;;;0.10;0.10;;;5.50;99.90;;;;;;5075237;28;20197;-81
2023/05/03 02:49:16;;;;;;;0.10;0.10;;;5.60;99.90;;;;;;5074188;28;20261;-80
2023/05/03 02:51:41;;;;;;;0.10;0.10;;;5.70;99.90;;;;;;5075130;28;20561;-81
2023/05/03 02:54:07;;;;;;;0.10;0.10;;;5.80;99.90;;;;;;5073178;28;20187;-80
2023/05/03 02:56:32;;;;;;;0.10;0.10;;;5.80;99.90;;;;;;5072696;28;20185;-82
2023/05/03 02:58:58;;;;;;;0.10;0.10;;;5.80;99.90;;;;;;5075587;28;20286;-81
2023/05/03 03:01:23;;;;;;;0.10;0.10;;;5.90;99.90;;;;;;5071123;28;20646;-81
2023/05/03 03:03:49;;;;;;;0.10;0.10;;;5.90;99.90;;;;;;5072293;28;20690;-81
2023/05/03 03:06:14;;;;;;;0.10;0.10;;;6.00;99.90;;;;;;5072653;28;20743;-81
2023/05/03 03:08:40;;;;;;;0.10;0.10;;;5.90;99.90;;;;;;5072309;28;20198;-81
2023/05/03 03:11:05;;;;;;;0.10;0.10;;;5.90;99.90;;;;;;5072663;28;20182;-82
2023/05/03 03:13:31;;;;;;;0.10;0.10;;;6.00;99.90;;;;;;5072790;28;20188;-82
2023/05/03 03:15:57;;;;;;;0.10;0.10;;;6.00;99.90;;;;;;5073038;28;20227;-81
2023/05/03 03:18:22;;;;;;;0.10;0.10;;;6.00;99.90;;;;;;5069250;28;20261;-81
2023/05/03 03:20:48;;;;;;;0.10;0.10;;;5.80;99.90;;;;;;5072278;28;20756;-82
2023/05/03 03:23:13;;;;;;;0.10;0.10;;;5.80;99.90;;;;;;5073348;28;20191;-82
2023/05/03 03:25:41;;;;;;;0.10;0.10;;;5.80;99.90;;;;;;5073491;28;20213;-82
2023/05/03 03:28:06;;;;;;;0.10;0.10;;;5.80;99.90;;;;;;5070963;28;20181;-82
2023/05/03 03:30:32;;;;;;;0.10;0.10;;;5.80;99.90;;;;;;5072173;28;20889;-81
2023/05/03 03:32:57;;;;;;;0.10;0.10;;;5.70;99.90;;;;;;5074318;28;20187;-82
2023/05/03 03:35:23;;;;;;;0.10;0.10;;;5.80;99.90;;;;;;5073425;28;20187;-81
2023/05/03 03:37:49;;;;;;;0.10;0.10;;;5.90;99.90;;;;;;5071346;28;20193;-82
2023/05/03 03:40:14;;;;;;;0.10;0.10;;;6.00;99.90;;;;;;5071812;28;20202;-82
2023/05/03 03:42:40;;;;;;;0.10;0.10;;;6.00;99.90;;;;;;5072304;28;20199;-81
2023/05/03 03:45:06;;;;;;;0.10;0.10;;;6.10;99.90;;;;;;5072090;28;20212;-82
2023/05/03 03:47:32;;;;;;;0.10;0.10;;;6.20;99.90;;;;;;5072948;28;20187;-81
2023/05/03 03:49:59;;;;;;;0.10;0.10;;;6.30;99.90;;;;;;5072263;28;20260;-82
2023/05/03 03:52:25;;;;;;;0.10;0.10;;;6.40;99.90;;;;;;5088209;28;20197;-82
2023/05/03 03:54:51;;;;;;;0.10;0.10;;;6.50;99.90;;;;;;5073685;28;20194;-82
2023/05/03 03:57:16;;;;;;;0.10;0.10;;;6.50;99.90;;;;;;5070818;28;20186;-82
2023/05/03 03:59:41;;;;;;;0.10;0.10;;;6.60;99.90;;;;;;5075092;28;20217;-82
2023/05/03 04:02:07;;;;;;;0.10;0.10;;;6.60;99.90;;;;;;5071706;28;20321;-82
2023/05/03 04:04:33;;;;;;;0.10;0.10;;;6.60;99.90;;;;;;5072266;28;20560;-82
2023/05/03 04:06:58;;;;;;;0.10;0.10;;;6.70;99.90;;;;;;5071420;28;20258;-82
2023/05/03 04:09:24;;;;;;;0.10;0.10;;;6.70;99.90;;;;;;5070475;28;20241;-81
2023/05/03 04:11:49;;;;;;;0.10;0.10;;;6.70;99.90;;;;;;5069260;28;20183;-82
2023/05/03 04:14:15;;;;;;;0.10;0.10;;;6.70;99.90;;;;;;5070494;28;20648;-82
2023/05/03 04:16:40;;;;;;;0.00;0.00;;;6.70;99.90;;;;;;5076215;28;20197;-82
2023/05/03 04:19:06;;;;;;;0.10;0.10;;;6.60;99.90;;;;;;5079257;28;20295;-81
2023/05/03 04:21:31;;;;;;;0.10;0.10;;;6.60;99.90;;;;;;5079708;28;20265;-82
2023/05/03 04:23:59;;;;;;;0.10;0.10;;;6.70;99.90;;;;;;5075404;28;20647;-82
2023/05/03 04:26:24;;;;;;;0.10;0.10;;;6.60;99.90;;;;;;5073466;28;20207;-82
2023/05/03 04:28:50;;;;;;;0.10;0.10;;;6.60;99.90;;;;;;5072180;28;20208;-82
2023/05/03 04:31:17;;;;;;;0.10;0.10;;;6.70;99.90;;;;;;5074009;28;20656;-82
2023/05/03 04:33:43;;;;;;;0.10;0.10;;;6.80;99.90;;;;;;5074426;28;20186;-82
2023/05/03 04:36:09;;;;;;;0.10;0.10;;;6.70;99.90;;;;;;5076408;28;20189;-82
2023/05/03 04:38:35;;;;;;;0.10;0.10;;;6.60;99.90;;;;;;5078958;28;20207;-84
2023/05/03 04:41:00;;;;;;;0.10;0.10;;;6.50;99.90;;;;;;5081052;28;20269;-82
2023/05/03 04:43:26;;;;;;;0.10;0.10;;;6.40;99.90;;;;;;5078609;28;20192;-82
2023/05/03 04:45:52;;;;;;;0.10;0.10;;;6.40;99.90;;;;;;5077173;28;20214;-82
2023/05/03 04:48:18;;;;;;;0.10;0.10;;;6.60;99.90;;;;;;5076828;28;20225;-82
2023/05/03 04:50:44;;;;;;;0.10;0.10;;;6.70;99.90;;;;;;5073596;28;20211;-81
2023/05/03 04:53:10;;;;;;;0.10;0.10;;;6.90;99.90;;;;;;5075232;28;20554;-83
2023/05/03 04:55:35;;;;;;;0.10;0.10;;;7.10;99.90;;;;;;5076838;28;20197;-81
2023/05/03 04:58:01;;;;;;;0.10;0.10;;;7.20;99.90;;;;;;5075975;28;20304;-82
2023/05/03 05:00:27;;;;;;;0.00;0.00;;;7.20;99.90;;;;;;5076690;28;21136;-82
2023/05/03 05:02:52;;;;;;;0.10;0.10;;;7.10;99.90;;;;;;5075316;28;20227;-82
2023/05/03 05:05:18;;;;;;;0.10;0.10;;;7.10;99.90;;;;;;5074761;28;20206;-82
2023/05/03 05:07:44;;;;;;;0.10;0.10;;;7.10;99.90;;;;;;5075391;28;20327;-82
2023/05/03 05:10:11;;;;;;;0.10;0.10;;;7.10;99.90;;;;;;5075827;28;20213;-82
2023/05/03 05:12:37;;;;;;;0.10;0.10;;;7.20;99.90;;;;;;5059258;28;20237;-82
2023/05/03 05:15:03;;;;;;;0.10;0.10;;;7.30;99.90;;;;;;5075919;28;20186;-82
2023/05/03 05:17:29;;;;;;;0.10;0.10;;;7.30;99.90;;;;;;5074343;28;20191;-83
2023/05/03 05:19:54;;;;;;;0.10;0.10;;;7.30;99.90;;;;;;5074519;28;21207;-84
2023/05/03 05:22:20;;;;;;;0.10;0.10;;;7.30;99.90;;;;;;5075346;28;20191;-83
2023/05/03 05:24:45;;;;;;;0.10;0.10;;;7.40;99.90;;;;;;5074004;28;20240;-83
2023/05/03 05:27:11;;;;;;;0.20;0.20;;;7.40;99.90;;;;;;5073591;28;20521;-84
2023/05/03 05:29:37;;;;;;;0.10;0.10;;;7.50;99.90;;;;;;5071817;28;20212;-83
2023/05/03 05:32:04;;;;;;;0.10;0.10;;;7.60;99.90;;;;;;5072525;28;20232;-84
2023/05/03 05:34:30;;;;;;;0.10;0.10;;;7.60;99.90;;;;;;5071677;28;20196;-83
2023/05/03 05:36:56;;;;;;;0.10;0.10;;;7.70;99.90;;;;;;5072472;28;20176;-84
2023/05/03 05:39:24;;;;;;;0.10;0.10;;;7.80;99.90;;;;;;5075410;28;20680;-83
2023/05/03 05:41:50;;;;;;;0.10;0.10;;;7.90;99.90;;;;;;5077074;28;20561;-84
2023/05/03 05:44:15;;;;;;;0.07;0.07;;;8.00;99.90;;;;;;5073042;28;20177;-84
2023/05/03 05:46:41;;;;;;;0.10;0.10;;;8.10;99.90;;;;;;5074657;28;20205;-82
2023/05/03 05:49:06;;;;;;;0.10;0.10;;;8.10;99.90;;;;;;5074288;28;20204;-83
2023/05/03 05:51:32;;;;;;;0.10;0.10;;;8.10;99.90;;;;;;5073380;28;20197;-84
2023/05/03 05:53:58;;;;;;;0.10;0.10;;;8.10;99.90;;;;;;5073174;28;20665;-83
2023/05/03 05:56:23;;;;;;;0.00;0.00;;;8.30;99.90;;;;;;5073410;28;20195;-83
2023/05/03 05:58:49;;;;;;;0.10;0.10;;;8.40;99.90;;;;;;5077268;28;20303;-84
2023/05/03 06:01:16;;;;;;;0.10;0.10;;;8.60;99.90;;;;;;5073420;28;20562;-83
2023/05/03 06:03:42;;;;;;;0.10;0.10;;;8.70;99.90;;;;;;5073207;28;20200;-83
2023/05/03 06:06:07;;;;;;;0.10;0.10;;;8.80;99.90;;;;;;5075268;28;20255;-82
2023/05/03 06:08:33;;;;;;;0.10;0.10;;;8.90;99.90;;;;;;5074969;28;20269;-83
2023/05/03 06:10:58;;;;;;;0.10;0.10;;;9.00;99.90;;;;;;5075755;28;20535;-82
2023/05/03 06:13:24;;;;;;;0.10;0.10;;;9.00;99.90;;;;;;5077279;28;20189;-83
2023/05/03 06:15:50;;;;;;;0.93;0.93;;;9.00;99.90;;;;;;5072391;28;20192;-82
2023/05/03 06:18:15;;;;;;;0.10;0.10;;;9.20;99.90;;;;;;5073557;28;20205;-81
2023/05/03 06:20:41;;;;;;;0.10;0.10;;;9.30;99.90;;;;;;5073331;28;20185;-82
2023/05/03 06:23:07;;;;;;;0.10;0.10;;;9.30;99.90;;;;;;5075169;28;20184;-84
2023/05/03 06:25:35;;;;;;;0.10;0.10;;;9.40;99.90;;;;;;5073274;28;20217;-82
2023/05/03 06:28:00;;;;;;;0.10;0.10;;;9.60;99.90;;;;;;5073917;28;20192;-81
2023/05/03 06:30:27;;;;;;;0.10;0.10;;;9.70;99.90;;;;;;5073090;28;20191;-81
2023/05/03 06:32:53;;;;;;;0.10;0.10;;;9.70;99.90;;;;;;5070579;28;20177;-82
2023/05/03 06:35:20;;;;;;;0.10;0.10;;;9.70;99.90;;;;;;5073016;28;20311;-83
2023/05/03 06:37:46;;;;;;;0.10;0.10;;;9.80;99.90;;;;;;5073686;28;20328;-84
2023/05/03 06:40:12;;;;;;;0.10;0.10;;;9.90;99.90;;;;;;5074350;28;20303;-83
2023/05/03 06:42:37;;;;;;;0.10;0.10;;;10.10;99.90;;;;;;5076844;28;20215;-82
2023/05/03 06:45:03;;;;;;;0.10;0.10;;;10.30;99.90;;;;;;5076842;28;20208;-83
2023/05/03 06:47:29;;;;;;;0.10;0.10;;;10.20;99.90;;;;;;5077969;28;20637;-82
2023/05/03 06:49:54;;;;;;;0.10;0.10;;;10.20;99.90;;;;;;5078092;28;20204;-82
2023/05/03 06:52:20;;;;;;;0.10;0.10;;;10.40;99.90;;;;;;5079425;28;21050;-82
2023/05/03 06:54:45;;;;;;;0.10;0.10;;;10.10;99.90;;;;;;5078693;28;20184;-82
2023/05/03 06:57:11;;;;;;;0.10;0.10;;;10.40;99.90;;;;;;5078078;28;20184;-82
2023/05/03 06:59:36;;;;;;;0.10;0.10;;;10.60;99.90;;;;;;5074694;28;20775;-82
2023/05/03 07:02:02;;;;;;;0.10;0.10;;;10.80;99.90;;;;;;5074516;28;20359;-82
2023/05/03 07:04:28;;;;;;;0.10;0.10;;;10.60;99.90;;;;;;5075050;28;21468;-83
2023/05/03 07:06:54;;;;;;;0.10;0.10;;;10.50;99.90;;;;;;5075999;28;20213;-82
2023/05/03 07:09:19;;;;;;;0.10;0.10;;;10.70;99.90;;;;;;5077951;28;20200;-82
2023/05/03 07:11:49;;;;;;;0.10;0.10;;;10.80;99.90;;;;;;5077014;28;20236;-82
2023/05/03 07:14:15;;;;;;;0.10;0.10;;;11.00;99.90;;;;;;5074628;28;20667;-83
2023/05/03 07:16:41;;;;;;;0.10;0.10;;;11.10;99.90;;;;;;5076271;28;20410;-83
2023/05/03 07:19:06;;;;;;;0.20;0.20;;;10.90;99.90;;;;;;5077038;28;20678;-82
2023/05/03 07:21:32;;;;;;;0.10;0.10;;;11.00;99.90;;;;;;5077687;28;20184;-82
2023/05/03 07:23:58;;;;;;;0.10;0.10;;;10.90;99.90;;;;;;5075539;28;20187;-83
2023/05/03 07:26:25;;;;;;;0.10;0.10;;;11.20;99.90;;;;;;5074538;28;20272;-83
2023/05/03 07:28:51;;;;;;;0.10;0.10;;;11.20;99.90;;;;;;5067714;28;20281;-83
2023/05/03 07:31:16;;;;;;;0.10;0.10;;;11.10;99.90;;;;;;5070562;28;20180;-83
2023/05/03 07:33:42;;;;;;;0.10;0.10;;;11.20;99.90;;;;;;5073505;28;20185;-83
2023/05/03 07:36:08;;;;;;;1.50;1.27;;;11.50;99.90;;;;;;5074758;28;20189;-82
2023/05/03 07:38:33;;;;;;;0.10;0.10;;;11.70;99.90;;;;;;5070021;28;20212;-83
2023/05/03 07:40:59;;;;;;;0.10;0.10;;;11.50;99.90;;;;;;5073495;28;21368;-82
2023/05/03 07:43:25;;;;;;;0.10;0.10;;;11.60;99.90;;;;;;5069906;28;20216;-82
2023/05/03 07:45:50;;;;;;;0.10;0.10;;;11.30;99.90;;;;;;5062410;28;20215;-81
2023/05/03 07:48:16;;;;;;;0.10;0.10;;;11.40;99.90;;;;;;5071156;28;20224;-82
2023/05/03 07:50:45;;;;;;;0.10;0.10;;;11.40;99.90;;;;;;5072826;28;20279;-82
2023/05/03 07:53:11;;;;;;;0.53;0.53;;;11.40;99.90;;;;;;5066927;28;20213;-85
2023/05/03 07:55:37;;;;;;;0.10;0.10;;;11.50;99.90;;;;;;5074209;28;20606;-81
2023/05/03 07:58:03;;;;;;;0.10;0.10;;;11.60;99.90;;;;;;5071424;28;20182;-82
2023/05/03 08:00:29;;;;;;;0.00;0.00;;;11.70;99.90;;;;;;5072019;28;20548;-82
2023/05/03 08:02:55;;;;;;;0.10;0.10;;;11.80;99.90;;;;;;5067774;28;20204;-82
2023/05/03 08:05:21;;;;;;;0.10;0.10;;;12.00;99.90;;;;;;5069454;28;20257;-82
2023/05/03 08:07:48;;;;;;;0.10;0.10;;;12.00;99.90;;;;;;5072453;28;20303;-81
2023/05/03 08:10:14;;;;;;;0.10;0.10;;;12.20;99.90;;;;;;5070046;28;20207;-82
2023/05/03 08:12:40;;;;;;;0.10;0.10;;;12.50;99.90;;;;;;5070899;28;20177;-82
2023/05/03 08:15:06;;;;;;;0.10;0.10;;;12.50;99.90;;;;;;5069714;28;20279;-82
2023/05/03 08:17:38;;;;;;;0.10;0.10;;;12.70;99.90;;;;;;5072922;28;20177;-82
2023/05/03 08:20:06;;;;;;;0.10;0.10;;;12.80;99.90;;;;;;5072658;28;20215;-81
2023/05/03 08:22:31;;;;;;;0.10;0.10;;;12.80;99.90;;;;;;5075144;28;20915;-82
2023/05/03 08:24:57;;;;;;;0.10;0.10;;;12.90;99.90;;;;;;5075959;28;20823;-82
2023/05/03 08:27:24;;;;;;;0.10;0.10;;;12.90;99.90;;;;;;5074303;28;20180;-82
2023/05/03 08:29:50;;;;;;;0.10;0.10;;;13.20;99.90;;;;;;5075876;28;20578;-81
2023/05/03 08:32:16;;;;;;;0.10;0.10;;;12.90;99.90;;;;;;5065210;28;20179;-82
2023/05/03 08:34:42;;;;;;;0.10;0.10;;;12.80;99.90;;;;;;5070813;28;20195;-82
2023/05/03 08:37:07;;;;;;;0.10;0.10;;;12.80;99.90;;;;;;5074424;28;20201;-82
2023/05/03 08:39:33;;;;;;;0.10;0.10;;;13.00;99.90;;;;;;5069786;28;20206;-81
2023/05/03 08:41:59;;;;;;;0.10;0.10;;;13.30;99.90;;;;;;5072762;28;20177;-82
2023/05/03 08:44:28;;;;;;;0.10;0.10;;;13.40;99.90;;;;;;5073648;28;20227;-82
2023/05/03 08:46:53;;;;;;;0.10;0.10;;;13.00;99.90;;;;;;5068625;28;20213;-82
2023/05/03 08:49:20;;;;;;;0.10;0.10;;;13.50;99.90;;;;;;5067824;28;20193;-82
2023/05/03 08:51:48;;;;;;;0.10;0.10;;;13.30;99.90;;;;;;5062922;28;20186;-82
2023/05/03 08:54:14;;;;;;;0.10;0.10;;;13.70;99.90;;;;;;5068457;28;20182;-82
2023/05/03 08:56:42;;;;;;;0.10;0.10;;;14.20;99.90;;;;;;5068766;28;20398;-82
2023/05/03 08:59:10;;;;;;;0.10;0.10;;;14.50;99.90;;;;;;5073268;28;20214;-82
2023/05/03 09:01:37;;;;;;;0.10;0.10;;;14.70;99.90;;;;;;5074288;28;21239;-83
2023/05/03 09:04:03;;;;;;;0.10;0.10;;;14.30;99.90;;;;;;5072901;28;20193;-83
2023/05/03 09:06:30;;;;;;;0.10;0.10;;;13.70;99.90;;;;;;5069760;28;20218;-83
2023/05/03 09:08:56;;;;;;;0.20;0.20;;;13.90;99.90;;;;;;5075269;28;20337;-83
2023/05/03 09:11:27;;;;;;;0.10;0.10;;;13.90;99.90;;;;;;5077535;28;20603;-82
2023/05/03 09:14:06;;;;;;;0.00;0.00;;;14.20;99.90;;;;;;5076810;28;20261;-81
2023/05/03 09:16:31;;;;;;;0.10;0.10;;;14.80;99.90;;;;;;5070830;28;20185;-83
2023/05/03 09:19:02;;;;;;;0.10;0.10;;;14.80;99.90;;;;;;5075905;28;20200;-83
2023/05/03 09:21:30;;;;;;;0.10;0.10;;;14.50;99.90;;;;;;5077911;28;20180;-82
2023/05/03 09:23:56;;;;;;;0.10;0.10;;;14.60;99.90;;;;;;5077977;28;20186;-83
2023/05/03 09:26:34;;;;;;;0.10;0.10;;;15.30;99.90;;;;;;5078401;28;20224;-83
2023/05/03 09:29:01;;;;;;;0.10;0.10;;;15.70;99.90;;;;;;5079600;28;20228;-83
2023/05/03 09:31:29;;;;;;;0.10;0.10;;;16.00;99.90;;;;;;5077847;28;20177;-82
2023/05/03 09:33:55;;;;;;;0.10;0.10;;;15.30;99.90;;;;;;5080645;28;20188;-82
2023/05/03 09:36:21;;;;;;;0.10;0.10;;;14.70;99.90;;;;;;5079080;28;20188;-83
2023/05/03 09:38:47;;;;;;;0.10;0.10;;;14.30;99.90;;;;;;5081259;28;20257;-84
2023/05/03 09:41:13;;;;;;;0.10;0.10;;;14.00;99.90;;;;;;5077349;28;20191;-84
2023/05/03 09:43:51;;;;;;;0.10;0.10;;;14.30;99.90;;;;;;5077135;28;20184;-83
2023/05/03 09:46:28;;;;;;;0.10;0.10;;;14.30;99.90;;;;;;5078484;28;20216;-84
2023/05/03 09:48:55;;;;;;;0.10;0.10;;;15.00;99.90;;;;;;5077526;28;20200;-83
2023/05/03 09:51:22;;;;;;;0.10;0.10;;;14.60;99.90;;;;;;5074700;28;20188;-81
2023/05/03 09:53:48;;;;;;;0.10;0.10;;;15.10;99.90;;;;;;5080175;28;20657;-83
2023/05/03 09:56:14;;;;;;;0.10;0.10;;;15.20;99.90;;;;;;5080511;28;20190;-82
2023/05/03 09:58:40;;;;;;;0.10;0.10;;;15.50;99.90;;;;;;5076170;28;20204;-83
2023/05/03 10:01:08;;;;;;;0.10;0.10;;;15.90;99.90;;;;;;5076685;28;21217;-83
2023/05/03 10:03:41;;;;;;;0.00;0.00;;;15.60;99.90;;;;;;5078768;28;20288;-83
2023/05/03 10:06:25;;;;;;;0.10;0.10;;;16.10;99.90;;;;;;5078911;28;20212;-83
2023/05/03 10:09:15;;;;;;;0.10;0.10;;;15.90;99.90;;;;;;5075361;28;20694;-83
2023/05/03 10:11:46;;;;;;;0.10;0.10;;;15.90;99.90;;;;;;5076996;28;20228;-83
2023/05/03 10:14:11;;;;;;;0.10;0.10;;;16.00;99.90;;;;;;5075857;28;20237;-82
2023/05/03 10:16:42;;;;;;;0.10;0.10;;;15.50;99.90;;;;;;5073830;28;20957;-83
2023/05/03 10:19:16;;;;;;;0.10;0.10;;;15.40;99.90;;;;;;5072715;28;20204;-82
2023/05/03 10:21:55;;;;;;;0.20;0.20;;;15.50;99.90;;;;;;5073943;28;20179;-82
2023/05/03 10:24:21;;;;;;;0.10;0.10;;;15.50;99.90;;;;;;5075435;28;20207;-82
2023/05/03 10:26:49;;;;;;;0.10;0.10;;;16.10;99.90;;;;;;5075224;28;20204;-83
2023/05/03 10:29:33;;;;;;;0.10;0.10;;;16.10;99.90;;;;;;5075225;28;20211;-82
2023/05/03 10:32:00;;;;;;;0.10;0.10;;;15.90;99.90;;;;;;5076673;28;20579;-83
2023/05/03 10:34:33;;;;;;;0.10;0.10;;;16.30;99.90;;;;;;5074285;28;20189;-83
2023/05/03 10:37:08;;;;;;;0.10;0.10;;;16.50;99.90;;;;;;5076509;28;20188;-83
2023/05/03 10:39:34;;;;;;;0.10;0.10;;;16.20;99.90;;;;;;5077939;28;20514;-83
2023/05/03 10:42:06;;;;;;;0.10;0.10;;;15.90;99.90;;;;;;5077969;28;20200;-83
2023/05/03 10:45:00;;;;;;;0.10;0.10;;;15.90;99.90;;;;;;5077249;28;20192;-83
2023/05/03 10:47:25;;;;;;;0.10;0.10;;;16.20;99.90;;;;;;5077665;28;20333;-82
2023/05/03 10:50:24;;;;;;;0.10;0.10;;;16.00;99.90;;;;;;5076829;28;20197;-82
2023/05/03 10:52:50;;;;;;;0.10;0.10;;;16.00;99.90;;;;;;5031901;28;20649;-82
2023/05/03 10:55:20;;;;;;;0.10;0.10;;;16.40;99.90;;;;;;5074637;28;20191;-82
2023/05/03 10:57:47;;;;;;;0.10;0.10;;;16.10;99.90;;;;;;5075249;28;20180;-83
2023/05/03 11:00:15;;;;;;;0.10;0.10;;;16.30;99.90;;;;;;5072974;28;20226;-82
2023/05/03 11:03:26;;;;;;;0.10;0.10;;;16.20;99.90;;;;;;5073850;28;20196;-82
2023/05/03 11:05:52;;;;;;;0.10;0.10;;;16.40;99.90;;;;;;5073670;28;20678;-82
2023/05/03 11:08:24;;;;;;;0.10;0.10;;;16.30;99.90;;;;;;5075660;28;20230;-82
2023/05/03 11:10:58;;;;;;;0.20;0.20;;;16.70;99.90;;;;;;5094325;28;20702;-83
2023/05/03 11:13:24;;;;;;;0.10;0.10;;;17.00;99.90;;;;;;5076555;28;20878;-83
2023/05/03 11:15:53;;;;;;;0.10;0.10;;;17.20;99.90;;;;;;5078801;28;20187;-82
2023/05/03 11:18:19;;;;;;;0.10;0.10;;;17.40;99.90;;;;;;5075442;28;20216;-83
2023/05/03 11:20:45;;;;;;;0.10;0.10;;;17.60;99.90;;;;;;5075969;28;20192;-83
2023/05/03 11:23:11;;;;;;;0.10;0.10;;;16.90;99.90;;;;;;5096106;28;20752;-83
2023/05/03 11:25:37;;;;;;;0.10;0.10;;;16.60;99.90;;;;;;5071957;28;20223;-83
2023/05/03 11:28:03;;;;;;;0.10;0.10;;;16.70;99.90;;;;;;5079226;28;20184;-83
2023/05/03 11:30:33;;;;;;;0.10;0.10;;;16.20;99.90;;;;;;5076787;28;20551;-82
2023/05/03 11:33:00;;;;;;;0.10;0.10;;;16.50;99.90;;;;;;5078282;28;20520;-83
2023/05/03 11:35:28;;;;;;;0.10;0.10;;;17.20;99.90;;;;;;5075902;28;20190;-82
2023/05/03 11:37:54;;;;;;;0.10;0.10;;;17.70;99.90;;;;;;5073579;28;20267;-83
2023/05/03 11:40:20;;;;;;;0.10;0.10;;;17.20;99.90;;;;;;5071877;28;20562;-83
2023/05/03 11:42:53;;;;;;;0.10;0.10;;;17.60;99.90;;;;;;5069891;28;20271;-83
2023/05/03 11:45:28;;;;;;;0.10;0.10;;;17.80;99.90;;;;;;5070940;28;20208;-83
2023/05/03 11:47:55;;;;;;;0.10;0.10;;;18.20;99.90;;;;;;5070284;28;20172;-83
2023/05/03 11:50:47;;;;;;;0.10;0.10;;;18.50;99.90;;;;;;5069597;28;20693;-83
2023/05/03 11:53:16;;;;;;;0.10;0.10;;;18.50;99.90;;;;;;5068492;28;20263;-83
2023/05/03 11:55:47;;;;;;;0.10;0.10;;;18.10;99.90;;;;;;5069222;28;20199;-83
2023/05/03 11:58:15;;;;;;;0.10;0.10;;;18.00;99.90;;;;;;5069168;28;20193;-82
2023/05/03 12:00:48;;;;;;;0.10;0.10;;;18.30;99.90;;;;;;5074383;28;20583;-81
2023/05/03 12:03:25;;;;;;;0.10;0.10;;;18.40;99.90;;;;;;5069616;28;20211;-82
2023/05/03 12:05:54;;;;;;;0.10;0.10;;;18.40;99.90;;;;;;5068854;28;20265;-83
2023/05/03 12:08:21;;;;;;;0.10;0.10;;;18.10;99.90;;;;;;5068759;28;20208;-83
2023/05/03 12:10:48;;;;;;;0.10;0.10;;;18.30;99.90;;;;;;5072143;28;20694;-82
2023/05/03 12:13:13;;;;;;;0.10;0.10;;;17.90;99.90;;;;;;5068419;28;20199;-84
2023/05/03 12:15:42;;;;;;;0.10;0.10;;;17.60;99.90;;;;;;5071819;28;21108;-83
2023/05/03 12:18:09;;;;;;;0.10;0.10;;;17.90;99.90;;;;;;5069805;28;20189;-82
2023/05/03 12:20:36;;;;;;;0.10;0.10;;;18.50;99.90;;;;;;5070774;28;20209;-83
2023/05/03 12:23:06;;;;;;;0.10;0.10;;;18.80;99.90;;;;;;5069233;28;20177;-83
2023/05/03 12:25:33;;;;;;;0.10;0.10;;;18.90;99.90;;;;;;5068237;28;20219;-83
2023/05/03 12:28:03;;;;;;;0.10;0.10;;;18.90;99.90;;;;;;5068066;28;20652;-83
2023/05/03 12:30:29;;;;;;;0.10;0.10;;;17.90;99.90;;;;;;5069315;28;20217;-83
2023/05/03 12:32:55;;;;;;;0.10;0.10;;;18.20;99.90;;;;;;5071073;28;20825;-83
2023/05/03 12:35:22;;;;;;;0.10;0.10;;;18.00;99.90;;;;;;5067612;28;20192;-83
2023/05/03 12:37:49;;;;;;;0.10;0.10;;;18.00;99.90;;;;;;5067986;28;20214;-83
2023/05/03 12:40:15;;;;;;;0.10;0.10;;;18.30;99.90;;;;;;5069904;28;20232;-83
2023/05/03 12:42:41;;;;;;;0.10;0.10;;;17.70;99.90;;;;;;5070986;28;20189;-82
2023/05/03 12:45:07;;;;;;;0.10;0.10;;;18.00;99.90;;;;;;5071691;28;20239;-83
2023/05/03 12:47:33;;;;;;;0.10;0.10;;;18.50;99.90;;;;;;5069588;28;20180;-83
2023/05/03 12:50:01;;;;;;;0.10;0.10;;;18.10;99.90;;;;;;5071889;28;20661;-83
2023/05/03 12:52:26;;;;;;;0.10;0.10;;;18.50;99.90;;;;;;5067796;28;20242;-83
2023/05/03 12:54:52;;;;;;;0.10;0.10;;;18.80;99.90;;;;;;5072150;28;20177;-83